Harpers Ferry, WV (25425)

8:10 PM EDT on September 02, 2015 (GMT -0400)
Tasty Acres Farm | | Change Station
CLOSE
Current Station
Personal Weather Station
Location: Harpers Ferry, WV
Elevation: 435 ft
Nearby Weather Stations

Elev 435 ft 39.36 °N, 77.77 °W | Updated 4 minutes ago

Partly Cloudy
Partly Cloudy
74.7 °F
Feels Like 74 °F
N
0.0
Wind Variable Wind from South
Gusts 1.0 mph

Today
High -- | Low -- °F
--% Chance of Precip.
Yesterday
High -- | Low -- °F
Precip. -- in
6:40 AM 7:40 PM
Waning Gibbous, 76% visible
Pressure 29.95 in
Visibility 10.0 miles
Clouds Clear
Heat Index 74 °F
Dew Point 70 °F
Humidity 85%
Rainfall 0.03 in
Snow Depth Not available.
UV 0 out of 12
Pollen 9.40 out of 12
Air Quality Not available.
Flu Activity Not available.
METAR KMRB 022353Z 17004KT 10SM CLR 25/17 A2996 RMK AO2 SLP140 T02500167 10328 20250 58008
Pressure 29.95 in
Visibility 10.0 miles
Clouds Clear
Heat Index 74 °F
Dew Point 70 °F
Humidity 85%
Rainfall 0.03 in
Snow Depth Not available.
UV 0 out of 12
Pollen 9.40 out of 12
Air Quality Not available.
Flu Activity Not available.
METAR KMRB 022353Z 17004KT 10SM CLR 25/17 A2996 RMK AO2 SLP140 T02500167 10328 20250 58008

10-Day Weather Forecast

×

Almanac

Astronomy

Sep. 02, 2015 Rise Set
Actual Time
Civil Twilight
Nautical Twilight
Astronomical Twilight
Moon
Length of Visible Light
Length of Day
Tomorrow will be .
, % of the Moon is Illuminated

Today's Extremes

State Highs State Lows

Community

WunderPhotos

Upload Photos

1,851,846 photos uploaded!

WunderBlogs® & News

Nearby

Air Quality

  Air Quality AQ Index Pollutant
Not available.

Snow Depth

Station Depth Elevation

Earthquake Activity

City Distance Mag. Time & Date
Minimum magnitude displayed is 2.5.

Coastal Water Temperatures

Place Temperature

Stations

Nearby Weather Stations

Station Location Temp. Windchill Dew Point Humidity Wind Precip. Elev Updated Type